sensor_id;sensor_type;location;lat;lon;timestamp;pressure;altitude;pressure_sealevel;temperature;humidity
55801;BME280;41730;51.960;20.158;2023-07-02T00:01:13;98983.67;;;19.02;71.27
55801;BME280;41730;51.960;20.158;2023-07-02T00:03:45;98982.52;;;18.98;71.26
55801;BME280;41730;51.960;20.158;2023-07-02T00:06:17;98981.95;;;18.85;71.58
55801;BME280;41730;51.960;20.158;2023-07-02T00:08:49;98982.14;;;18.71;72.02
55801;BME280;41730;51.960;20.158;2023-07-02T00:11:21;98980.89;;;18.61;72.48
55801;BME280;41730;51.960;20.158;2023-07-02T00:13:53;98981.97;;;18.71;72.23
55801;BME280;41730;51.960;20.158;2023-07-02T00:16:25;98984.02;;;18.77;71.93
55801;BME280;41730;51.960;20.158;2023-07-02T00:18:58;98982.41;;;18.73;71.94
55801;BME280;41730;51.960;20.158;2023-07-02T00:21:30;98976.91;;;18.67;72.11
55801;BME280;41730;51.960;20.158;2023-07-02T00:24:03;98977.00;;;18.72;71.94
55801;BME280;41730;51.960;20.158;2023-07-02T00:26:35;98975.13;;;18.74;71.75
55801;BME280;41730;51.960;20.158;2023-07-02T00:29:08;98975.09;;;18.77;71.68
55801;BME280;41730;51.960;20.158;2023-07-02T00:31:40;98976.38;;;18.65;71.91
55801;BME280;41730;51.960;20.158;2023-07-02T00:34:12;98975.87;;;18.53;72.30
55801;BME280;41730;51.960;20.158;2023-07-02T00:36:43;98977.10;;;18.50;72.55
55801;BME280;41730;51.960;20.158;2023-07-02T00:39:15;98978.33;;;18.67;71.90
55801;BME280;41730;51.960;20.158;2023-07-02T00:41:49;98976.38;;;18.65;71.89
55801;BME280;41730;51.960;20.158;2023-07-02T00:44:21;98971.29;;;18.50;72.43
55801;BME280;41730;51.960;20.158;2023-07-02T00:46:53;98976.02;;;18.61;72.07
55801;BME280;41730;51.960;20.158;2023-07-02T00:49:25;98972.94;;;18.61;72.01
55801;BME280;41730;51.960;20.158;2023-07-02T00:51:58;98971.25;;;18.63;72.02
55801;BME280;41730;51.960;20.158;2023-07-02T00:54:31;98974.02;;;18.53;72.37
55801;BME280;41730;51.960;20.158;2023-07-02T00:57:03;98969.95;;;18.61;72.39
55801;BME280;41730;51.960;20.158;2023-07-02T00:59:35;98969.37;;;18.63;72.06
55801;BME280;41730;51.960;20.158;2023-07-02T01:02:08;98967.56;;;18.54;72.48
55801;BME280;41730;51.960;20.158;2023-07-02T01:04:41;98966.66;;;18.51;72.63
55801;BME280;41730;51.960;20.158;2023-07-02T01:07:12;98963.71;;;18.48;72.73
55801;BME280;41730;51.960;20.158;2023-07-02T01:09:44;98965.35;;;18.51;72.80
55801;BME280;41730;51.960;20.158;2023-07-02T01:12:16;98962.38;;;18.58;72.69
55801;BME280;41730;51.960;20.158;2023-07-02T01:14:50;98961.86;;;18.74;72.27
55801;BME280;41730;51.960;20.158;2023-07-02T01:17:24;98958.94;;;18.82;72.01
55801;BME280;41730;51.960;20.158;2023-07-02T01:19:59;98958.59;;;18.90;71.73
55801;BME280;41730;51.960;20.158;2023-07-02T01:22:31;98957.90;;;18.84;71.78
55801;BME280;41730;51.960;20.158;2023-07-02T01:25:04;98956.84;;;18.82;72.08
55801;BME280;41730;51.960;20.158;2023-07-02T01:27:38;98956.47;;;18.95;71.63
55801;BME280;41730;51.960;20.158;2023-07-02T01:30:11;98954.05;;;18.91;71.75
55801;BME280;41730;51.960;20.158;2023-07-02T01:32:43;98950.50;;;18.89;71.96
55801;BME280;41730;51.960;20.158;2023-07-02T01:35:14;98950.55;;;19.08;71.42
55801;BME280;41730;51.960;20.158;2023-07-02T01:37:46;98948.79;;;19.14;71.11
55801;BME280;41730;51.960;20.158;2023-07-02T01:40:18;98947.52;;;19.05;71.36
55801;BME280;41730;51.960;20.158;2023-07-02T01:42:50;98946.22;;;18.93;71.91
55801;BME280;41730;51.960;20.158;2023-07-02T01:45:21;98943.11;;;19.08;71.46
55801;BME280;41730;51.960;20.158;2023-07-02T01:47:53;98945.39;;;19.11;71.36
55801;BME280;41730;51.960;20.158;2023-07-02T01:50:24;98938.23;;;19.03;71.66
55801;BME280;41730;51.960;20.158;2023-07-02T01:52:58;98937.84;;;19.08;71.59
55801;BME280;41730;51.960;20.158;2023-07-02T01:55:30;98935.84;;;19.21;71.00
55801;BME280;41730;51.960;20.158;2023-07-02T01:58:01;98933.48;;;19.16;70.92
55801;BME280;41730;51.960;20.158;2023-07-02T02:00:33;98932.55;;;19.08;71.31
55801;BME280;41730;51.960;20.158;2023-07-02T02:03:05;98932.86;;;19.03;71.32
55801;BME280;41730;51.960;20.158;2023-07-02T02:05:37;98931.89;;;18.90;71.73
55801;BME280;41730;51.960;20.158;2023-07-02T02:08:08;98932.70;;;18.95;71.65
55801;BME280;41730;51.960;20.158;2023-07-02T02:10:40;98927.98;;;18.96;71.40
55801;BME280;41730;51.960;20.158;2023-07-02T02:13:11;98928.35;;;19.02;71.31
55801;BME280;41730;51.960;20.158;2023-07-02T02:15:43;98924.36;;;19.04;70.96
55801;BME280;41730;51.960;20.158;2023-07-02T02:18:15;98928.27;;;19.04;70.88
55801;BME280;41730;51.960;20.158;2023-07-02T02:20:46;98925.11;;;19.17;70.64
55801;BME280;41730;51.960;20.158;2023-07-02T02:23:18;98922.02;;;19.19;70.23
55801;BME280;41730;51.960;20.158;2023-07-02T02:25:50;98918.95;;;18.98;70.93
55801;BME280;41730;51.960;20.158;2023-07-02T02:28:22;98917.74;;;19.02;70.86
55801;BME280;41730;51.960;20.158;2023-07-02T02:30:53;98920.79;;;18.91;71.12
55801;BME280;41730;51.960;20.158;2023-07-02T02:33:25;98915.42;;;18.76;71.69
55801;BME280;41730;51.960;20.158;2023-07-02T02:35:57;98919.75;;;18.70;71.85
55801;BME280;41730;51.960;20.158;2023-07-02T02:38:29;98914.90;;;18.74;71.79
55801;BME280;41730;51.960;20.158;2023-07-02T02:41:01;98918.20;;;18.72;71.69
55801;BME280;41730;51.960;20.158;2023-07-02T02:43:33;98916.75;;;18.60;72.07
55801;BME280;41730;51.960;20.158;2023-07-02T02:46:04;98918.52;;;18.63;72.12
55801;BME280;41730;51.960;20.158;2023-07-02T02:48:36;98920.52;;;18.67;71.92
55801;BME280;41730;51.960;20.158;2023-07-02T02:51:08;98920.69;;;18.68;71.82
55801;BME280;41730;51.960;20.158;2023-07-02T02:53:39;98919.89;;;18.71;71.72
55801;BME280;41730;51.960;20.158;2023-07-02T02:56:11;98916.34;;;18.77;71.56
55801;BME280;41730;51.960;20.158;2023-07-02T02:58:43;98913.21;;;18.78;71.42
55801;BME280;41730;51.960;20.158;2023-07-02T03:01:15;98914.26;;;18.67;71.67
55801;BME280;41730;51.960;20.158;2023-07-02T03:03:47;98912.52;;;18.75;71.54
55801;BME280;41730;51.960;20.158;2023-07-02T03:06:18;98914.66;;;18.91;70.92
55801;BME280;41730;51.960;20.158;2023-07-02T03:08:50;98918.92;;;19.01;70.53
55801;BME280;41730;51.960;20.158;2023-07-02T03:11:21;98911.44;;;19.07;70.34
55801;BME280;41730;51.960;20.158;2023-07-02T03:13:53;98913.42;;;19.20;69.85
55801;BME280;41730;51.960;20.158;2023-07-02T03:16:25;98911.42;;;19.22;69.61
55801;BME280;41730;51.960;20.158;2023-07-02T03:18:56;98912.27;;;19.25;69.54
55801;BME280;41730;51.960;20.158;2023-07-02T03:21:30;98908.90;;;19.27;69.28
55801;BME280;41730;51.960;20.158;2023-07-02T03:24:02;98909.27;;;19.20;69.51
55801;BME280;41730;51.960;20.158;2023-07-02T03:26:34;98909.80;;;19.13;69.77
55801;BME280;41730;51.960;20.158;2023-07-02T03:29:05;98905.94;;;19.16;69.63
55801;BME280;41730;51.960;20.158;2023-07-02T03:31:41;98910.29;;;19.21;69.46
55801;BME280;41730;51.960;20.158;2023-07-02T03:34:21;98909.66;;;19.30;69.25
55801;BME280;41730;51.960;20.158;2023-07-02T03:37:19;98908.80;;;19.46;68.70
55801;BME280;41730;51.960;20.158;2023-07-02T03:40:00;98907.32;;;19.47;68.46
55801;BME280;41730;51.960;20.158;2023-07-02T03:42:42;98908.83;;;19.54;68.43
55801;BME280;41730;51.960;20.158;2023-07-02T03:45:20;98907.54;;;19.63;68.03
55801;BME280;41730;51.960;20.158;2023-07-02T03:47:51;98905.27;;;19.73;67.70
55801;BME280;41730;51.960;20.158;2023-07-02T03:50:23;98904.25;;;19.71;67.65
55801;BME280;41730;51.960;20.158;2023-07-02T03:52:55;98902.31;;;19.77;67.48
55801;BME280;41730;51.960;20.158;2023-07-02T03:55:26;98902.28;;;19.80;67.28
55801;BME280;41730;51.960;20.158;2023-07-02T03:57:58;98902.48;;;19.72;67.44
55801;BME280;41730;51.960;20.158;2023-07-02T04:00:29;98903.59;;;19.78;67.37
55801;BME280;41730;51.960;20.158;2023-07-02T04:03:01;98905.77;;;19.70;67.52
55801;BME280;41730;51.960;20.158;2023-07-02T04:05:33;98905.05;;;19.69;67.42
55801;BME280;41730;51.960;20.158;2023-07-02T04:08:05;98902.35;;;19.68;67.57
55801;BME280;41730;51.960;20.158;2023-07-02T04:10:37;98899.02;;;19.69;67.54
55801;BME280;41730;51.960;20.158;2023-07-02T04:13:08;98895.02;;;19.76;67.31
55801;BME280;41730;51.960;20.158;2023-07-02T04:15:40;98893.64;;;19.85;67.00
55801;BME280;41730;51.960;20.158;2023-07-02T04:18:12;98903.67;;;19.81;67.03
55801;BME280;41730;51.960;20.158;2023-07-02T04:20:43;98910.70;;;19.90;66.76
55801;BME280;41730;51.960;20.158;2023-07-02T04:23:15;98916.52;;;19.83;66.91
55801;BME280;41730;51.960;20.158;2023-07-02T04:25:47;98909.95;;;19.83;66.90
55801;BME280;41730;51.960;20.158;2023-07-02T04:28:39;98906.10;;;19.90;66.76
55801;BME280;41730;51.960;20.158;2023-07-02T04:31:11;98904.09;;;20.04;66.24
55801;BME280;41730;51.960;20.158;2023-07-02T04:33:42;98912.08;;;20.17;65.79
55801;BME280;41730;51.960;20.158;2023-07-02T04:36:14;98912.11;;;20.22;65.61
55801;BME280;41730;51.960;20.158;2023-07-02T04:38:46;98914.45;;;20.34;65.17
55801;BME280;41730;51.960;20.158;2023-07-02T04:41:18;98916.02;;;20.38;65.01
55801;BME280;41730;51.960;20.158;2023-07-02T04:43:50;98915.52;;;20.47;64.81
55801;BME280;41730;51.960;20.158;2023-07-02T04:46:22;98913.86;;;20.51;64.65
55801;BME280;41730;51.960;20.158;2023-07-02T04:48:53;98916.22;;;20.45;64.70
55801;BME280;41730;51.960;20.158;2023-07-02T04:51:25;98917.52;;;20.36;64.96
55801;BME280;41730;51.960;20.158;2023-07-02T04:53:57;98921.52;;;20.35;65.07
55801;BME280;41730;51.960;20.158;2023-07-02T04:56:28;98920.13;;;20.40;65.09
55801;BME280;41730;51.960;20.158;2023-07-02T04:59:00;98920.38;;;20.47;64.88
55801;BME280;41730;51.960;20.158;2023-07-02T05:01:31;98919.84;;;20.45;64.85
55801;BME280;41730;51.960;20.158;2023-07-02T05:04:04;98921.95;;;20.40;64.80
55801;BME280;41730;51.960;20.158;2023-07-02T05:06:36;98919.31;;;20.33;65.10
55801;BME280;41730;51.960;20.158;2023-07-02T05:09:08;98923.27;;;20.43;64.92
55801;BME280;41730;51.960;20.158;2023-07-02T05:11:39;98923.30;;;20.44;64.87
55801;BME280;41730;51.960;20.158;2023-07-02T05:14:11;98927.27;;;20.54;64.67
55801;BME280;41730;51.960;20.158;2023-07-02T05:16:42;98929.88;;;20.57;64.44
55801;BME280;41730;51.960;20.158;2023-07-02T05:19:14;98935.44;;;20.50;64.66
55801;BME280;41730;51.960;20.158;2023-07-02T05:21:45;98941.24;;;20.58;64.58
55801;BME280;41730;51.960;20.158;2023-07-02T05:24:17;98942.58;;;20.81;64.03
55801;BME280;41730;51.960;20.158;2023-07-02T05:26:49;98941.35;;;20.81;63.86
55801;BME280;41730;51.960;20.158;2023-07-02T05:29:21;98943.02;;;20.85;63.85
55801;BME280;41730;51.960;20.158;2023-07-02T05:31:52;98941.79;;;20.85;63.83
55801;BME280;41730;51.960;20.158;2023-07-02T05:34:24;98946.58;;;20.88;63.79
55801;BME280;41730;51.960;20.158;2023-07-02T05:36:55;98946.09;;;20.94;63.60
55801;BME280;41730;51.960;20.158;2023-07-02T05:39:27;98946.92;;;20.93;63.80
55801;BME280;41730;51.960;20.158;2023-07-02T05:41:59;98947.71;;;21.02;63.62
55801;BME280;41730;51.960;20.158;2023-07-02T05:44:31;98945.16;;;21.15;63.33
55801;BME280;41730;51.960;20.158;2023-07-02T05:47:02;98944.46;;;21.23;63.25
55801;BME280;41730;51.960;20.158;2023-07-02T05:49:34;98946.17;;;21.29;62.86
55801;BME280;41730;51.960;20.158;2023-07-02T05:52:07;98949.41;;;21.34;62.59
55801;BME280;41730;51.960;20.158;2023-07-02T05:54:41;98950.59;;;21.52;62.23
55801;BME280;41730;51.960;20.158;2023-07-02T05:57:13;98959.92;;;21.68;61.74
55801;BME280;41730;51.960;20.158;2023-07-02T05:59:45;98960.23;;;21.79;61.51
55801;BME280;41730;51.960;20.158;2023-07-02T06:02:16;98958.79;;;21.89;61.46
55801;BME280;41730;51.960;20.158;2023-07-02T06:04:48;98959.09;;;22.02;60.96
55801;BME280;41730;51.960;20.158;2023-07-02T06:07:20;98959.05;;;21.94;61.04
55801;BME280;41730;51.960;20.158;2023-07-02T06:09:52;98960.05;;;21.83;61.23
55801;BME280;41730;51.960;20.158;2023-07-02T06:12:24;98953.47;;;21.70;61.55
55801;BME280;41730;51.960;20.158;2023-07-02T06:14:55;98949.50;;;21.66;61.58
55801;BME280;41730;51.960;20.158;2023-07-02T06:17:27;98945.90;;;21.70;61.48
55801;BME280;41730;51.960;20.158;2023-07-02T06:20:06;98951.57;;;21.76;61.18
55801;BME280;41730;51.960;20.158;2023-07-02T06:22:39;98961.15;;;21.84;60.99
55801;BME280;41730;51.960;20.158;2023-07-02T06:25:12;98963.77;;;21.87;60.87
55801;BME280;41730;51.960;20.158;2023-07-02T06:27:44;98967.73;;;21.89;60.91
55801;BME280;41730;51.960;20.158;2023-07-02T06:30:16;98970.40;;;21.98;60.57
55801;BME280;41730;51.960;20.158;2023-07-02T06:32:48;98971.57;;;22.07;60.31
55801;BME280;41730;51.960;20.158;2023-07-02T06:35:20;98963.74;;;22.09;59.81
55801;BME280;41730;51.960;20.158;2023-07-02T06:37:52;98970.43;;;22.13;59.53
55801;BME280;41730;51.960;20.158;2023-07-02T06:40:23;98976.27;;;22.08;59.81
55801;BME280;41730;51.960;20.158;2023-07-02T06:42:55;98979.11;;;22.11;59.84
55801;BME280;41730;51.960;20.158;2023-07-02T06:45:27;98982.52;;;22.12;59.91
55801;BME280;41730;51.960;20.158;2023-07-02T06:47:58;98986.05;;;22.29;59.62
55801;BME280;41730;51.960;20.158;2023-07-02T06:50:30;98986.73;;;22.44;59.40
55801;BME280;41730;51.960;20.158;2023-07-02T06:53:02;98986.80;;;22.35;59.70
55801;BME280;41730;51.960;20.158;2023-07-02T06:55:34;98985.83;;;22.39;59.61
55801;BME280;41730;51.960;20.158;2023-07-02T06:58:07;98989.39;;;22.36;59.77
55801;BME280;41730;51.960;20.158;2023-07-02T07:00:39;98990.59;;;22.36;59.83
55801;BME280;41730;51.960;20.158;2023-07-02T07:03:11;98993.31;;;22.38;59.76
55801;BME280;41730;51.960;20.158;2023-07-02T07:05:42;98992.44;;;22.28;59.90
55801;BME280;41730;51.960;20.158;2023-07-02T07:08:18;98988.16;;;22.21;60.09
55801;BME280;41730;51.960;20.158;2023-07-02T07:10:53;98985.06;;;22.26;60.01
55801;BME280;41730;51.960;20.158;2023-07-02T07:13:24;98985.57;;;22.30;60.07
55801;BME280;41730;51.960;20.158;2023-07-02T07:15:56;98981.77;;;22.30;60.00
55801;BME280;41730;51.960;20.158;2023-07-02T07:18:28;98980.98;;;22.43;60.07
55801;BME280;41730;51.960;20.158;2023-07-02T07:21:02;98982.37;;;22.69;59.52
55801;BME280;41730;51.960;20.158;2023-07-02T07:23:34;98975.97;;;22.81;59.43
55801;BME280;41730;51.960;20.158;2023-07-02T07:26:06;98976.96;;;22.81;59.63
55801;BME280;41730;51.960;20.158;2023-07-02T07:28:37;98981.48;;;22.87;59.68
55801;BME280;41730;51.960;20.158;2023-07-02T07:31:09;98979.74;;;23.06;59.35
55801;BME280;41730;51.960;20.158;2023-07-02T07:33:41;98983.28;;;23.25;59.19
55801;BME280;41730;51.960;20.158;2023-07-02T07:36:13;98990.58;;;23.52;58.69
55801;BME280;41730;51.960;20.158;2023-07-02T07:38:46;98994.69;;;23.71;58.53
55801;BME280;41730;51.960;20.158;2023-07-02T07:41:17;98996.60;;;23.88;57.99
55801;BME280;41730;51.960;20.158;2023-07-02T07:43:49;99002.65;;;24.00;56.99
55801;BME280;41730;51.960;20.158;2023-07-02T07:46:21;99012.11;;;23.97;57.07
55801;BME280;41730;51.960;20.158;2023-07-02T07:48:54;99010.99;;;23.95;57.04
55801;BME280;41730;51.960;20.158;2023-07-02T07:51:25;99011.11;;;23.62;57.76
55801;BME280;41730;51.960;20.158;2023-07-02T07:54:00;99011.91;;;23.33;58.37
55801;BME280;41730;51.960;20.158;2023-07-02T07:56:31;99011.20;;;23.12;58.70
55801;BME280;41730;51.960;20.158;2023-07-02T07:59:03;99008.51;;;23.07;58.86
55801;BME280;41730;51.960;20.158;2023-07-02T08:01:35;99008.40;;;23.18;58.81
55801;BME280;41730;51.960;20.158;2023-07-02T08:04:06;99015.96;;;23.26;58.68
55801;BME280;41730;51.960;20.158;2023-07-02T08:06:38;99009.78;;;23.25;58.90
55801;BME280;41730;51.960;20.158;2023-07-02T08:09:13;99014.00;;;23.42;58.87
55801;BME280;41730;51.960;20.158;2023-07-02T08:11:46;99011.52;;;23.51;58.68
55801;BME280;41730;51.960;20.158;2023-07-02T08:14:18;99013.96;;;23.53;58.70
55801;BME280;41730;51.960;20.158;2023-07-02T08:16:49;99019.08;;;23.51;58.69
55801;BME280;41730;51.960;20.158;2023-07-02T08:19:21;99026.39;;;23.47;58.68
55801;BME280;41730;51.960;20.158;2023-07-02T08:21:57;99027.23;;;23.43;58.44
55801;BME280;41730;51.960;20.158;2023-07-02T08:24:28;99027.09;;;23.30;58.55
55801;BME280;41730;51.960;20.158;2023-07-02T08:27:01;99026.79;;;23.23;58.84
55801;BME280;41730;51.960;20.158;2023-07-02T08:29:34;99030.77;;;23.43;58.39
55801;BME280;41730;51.960;20.158;2023-07-02T08:32:06;99032.32;;;23.48;58.26
55801;BME280;41730;51.960;20.158;2023-07-02T08:34:38;99033.23;;;23.57;58.15
55801;BME280;41730;51.960;20.158;2023-07-02T08:37:10;99033.61;;;23.51;58.21
55801;BME280;41730;51.960;20.158;2023-07-02T08:39:41;99034.88;;;23.41;58.58
55801;BME280;41730;51.960;20.158;2023-07-02T08:42:13;99032.98;;;23.44;58.93
55801;BME280;41730;51.960;20.158;2023-07-02T08:44:47;99032.04;;;23.51;58.75
55801;BME280;41730;51.960;20.158;2023-07-02T08:47:18;99039.78;;;23.65;58.31
55801;BME280;41730;51.960;20.158;2023-07-02T08:49:51;99044.02;;;23.85;57.90
55801;BME280;41730;51.960;20.158;2023-07-02T08:52:23;99034.29;;;23.94;57.66
55801;BME280;41730;51.960;20.158;2023-07-02T08:54:54;99036.16;;;24.03;57.41
55801;BME280;41730;51.960;20.158;2023-07-02T08:57:26;99043.73;;;23.96;57.50
55801;BME280;41730;51.960;20.158;2023-07-02T08:59:58;99042.84;;;24.00;57.50
55801;BME280;41730;51.960;20.158;2023-07-02T09:02:35;99048.41;;;24.13;57.44
55801;BME280;41730;51.960;20.158;2023-07-02T09:05:08;99048.43;;;24.34;57.18
55801;BME280;41730;51.960;20.158;2023-07-02T09:07:46;99044.15;;;24.52;56.62
55801;BME280;41730;51.960;20.158;2023-07-02T09:10:29;99044.63;;;24.36;56.95
55801;BME280;41730;51.960;20.158;2023-07-02T09:13:08;99049.72;;;24.32;56.87
55801;BME280;41730;51.960;20.158;2023-07-02T09:15:40;99052.69;;;24.27;56.87
55801;BME280;41730;51.960;20.158;2023-07-02T09:18:19;99053.55;;;24.16;57.11
55801;BME280;41730;51.960;20.158;2023-07-02T09:20:54;99054.88;;;24.15;57.05
55801;BME280;41730;51.960;20.158;2023-07-02T09:23:35;99051.39;;;24.18;56.96
55801;BME280;41730;51.960;20.158;2023-07-02T09:26:06;99047.42;;;24.39;56.63
55801;BME280;41730;51.960;20.158;2023-07-02T09:28:38;99047.83;;;24.66;55.90
55801;BME280;41730;51.960;20.158;2023-07-02T09:31:09;99043.42;;;24.90;55.36
55801;BME280;41730;51.960;20.158;2023-07-02T09:33:41;99046.42;;;24.97;55.13
55801;BME280;41730;51.960;20.158;2023-07-02T09:36:13;99040.14;;;25.18;54.86
55801;BME280;41730;51.960;20.158;2023-07-02T09:38:45;99038.27;;;25.36;54.66
55801;BME280;41730;51.960;20.158;2023-07-02T09:41:16;99036.07;;;25.53;54.01
55801;BME280;41730;51.960;20.158;2023-07-02T09:43:48;99039.73;;;25.70;53.94
55801;BME280;41730;51.960;20.158;2023-07-02T09:46:20;99033.86;;;25.83;53.61
55801;BME280;41730;51.960;20.158;2023-07-02T09:48:52;99035.06;;;25.78;53.59
55801;BME280;41730;51.960;20.158;2023-07-02T09:51:24;99029.80;;;25.79;53.43
55801;BME280;41730;51.960;20.158;2023-07-02T09:53:57;99032.46;;;25.81;53.30
55801;BME280;41730;51.960;20.158;2023-07-02T09:56:28;99034.33;;;25.73;53.53
55801;BME280;41730;51.960;20.158;2023-07-02T09:59:00;99029.02;;;25.91;53.22
55801;BME280;41730;51.960;20.158;2023-07-02T10:01:32;99026.20;;;26.16;52.49
55801;BME280;41730;51.960;20.158;2023-07-02T10:04:13;99024.38;;;26.15;52.39
55801;BME280;41730;51.960;20.158;2023-07-02T10:06:50;99023.23;;;26.28;52.05
55801;BME280;41730;51.960;20.158;2023-07-02T10:09:37;99022.66;;;26.31;51.69
55801;BME280;41730;51.960;20.158;2023-07-02T10:12:20;99027.45;;;26.17;51.74
55801;BME280;41730;51.960;20.158;2023-07-02T10:14:53;99024.16;;;26.13;51.40
55801;BME280;41730;51.960;20.158;2023-07-02T10:17:29;99022.23;;;26.17;51.35
55801;BME280;41730;51.960;20.158;2023-07-02T10:20:05;99024.55;;;26.23;51.30
55801;BME280;41730;51.960;20.158;2023-07-02T10:22:45;99022.88;;;26.26;51.11
55801;BME280;41730;51.960;20.158;2023-07-02T10:25:27;99022.25;;;26.28;50.88
55801;BME280;41730;51.960;20.158;2023-07-02T10:27:59;99020.95;;;26.34;50.58
55801;BME280;41730;51.960;20.158;2023-07-02T10:30:36;99021.77;;;26.27;50.57
55801;BME280;41730;51.960;20.158;2023-07-02T10:33:13;99025.58;;;26.25;50.18
55801;BME280;41730;51.960;20.158;2023-07-02T10:35:46;99020.94;;;26.09;50.59
55801;BME280;41730;51.960;20.158;2023-07-02T10:38:21;99025.52;;;26.09;50.75
55801;BME280;41730;51.960;20.158;2023-07-02T10:40:57;99023.02;;;26.07;50.56
55801;BME280;41730;51.960;20.158;2023-07-02T10:43:30;99025.13;;;26.08;50.31
55801;BME280;41730;51.960;20.158;2023-07-02T10:46:02;99027.77;;;26.01;50.20
55801;BME280;41730;51.960;20.158;2023-07-02T10:48:35;99026.91;;;25.96;49.88
55801;BME280;41730;51.960;20.158;2023-07-02T10:51:14;99033.27;;;25.82;49.96
55801;BME280;41730;51.960;20.158;2023-07-02T10:53:45;99037.40;;;25.73;50.09
55801;BME280;41730;51.960;20.158;2023-07-02T10:56:19;99036.77;;;25.76;50.10
55801;BME280;41730;51.960;20.158;2023-07-02T10:58:51;99040.45;;;25.61;50.21
55801;BME280;41730;51.960;20.158;2023-07-02T11:01:26;99040.46;;;25.42;50.44
55801;BME280;41730;51.960;20.158;2023-07-02T11:04:02;99043.14;;;25.30;50.58
55801;BME280;41730;51.960;20.158;2023-07-02T11:06:35;99046.94;;;25.24;50.70
55801;BME280;41730;51.960;20.158;2023-07-02T11:09:17;99044.68;;;25.23;50.76
55801;BME280;41730;51.960;20.158;2023-07-02T11:11:55;99045.48;;;25.24;50.95
55801;BME280;41730;51.960;20.158;2023-07-02T11:14:32;99044.97;;;25.30;50.87
55801;BME280;41730;51.960;20.158;2023-07-02T11:17:06;99039.44;;;25.52;50.78
55801;BME280;41730;51.960;20.158;2023-07-02T11:19:37;99039.73;;;25.59;50.55
55801;BME280;41730;51.960;20.158;2023-07-02T11:22:10;99032.29;;;25.67;50.42
55801;BME280;41730;51.960;20.158;2023-07-02T11:24:42;99032.83;;;25.67;50.08
55801;BME280;41730;51.960;20.158;2023-07-02T11:27:22;99033.70;;;25.65;50.32
55801;BME280;41730;51.960;20.158;2023-07-02T11:30:00;99029.05;;;25.73;49.95
55801;BME280;41730;51.960;20.158;2023-07-02T11:32:34;99032.12;;;25.84;49.45
55801;BME280;41730;51.960;20.158;2023-07-02T11:35:04;99035.95;;;25.88;49.44
55801;BME280;41730;51.960;20.158;2023-07-02T11:37:36;99033.73;;;25.98;49.52
55801;BME280;41730;51.960;20.158;2023-07-02T11:40:09;99032.86;;;26.05;49.40
55801;BME280;41730;51.960;20.158;2023-07-02T11:42:41;99036.89;;;26.08;49.14
55801;BME280;41730;51.960;20.158;2023-07-02T11:45:13;99043.27;;;25.90;49.24
55801;BME280;41730;51.960;20.158;2023-07-02T11:47:45;99050.45;;;25.74;49.65
55801;BME280;41730;51.960;20.158;2023-07-02T11:50:17;99048.61;;;25.69;49.72
55801;BME280;41730;51.960;20.158;2023-07-02T11:52:55;99054.69;;;25.58;49.78
55801;BME280;41730;51.960;20.158;2023-07-02T11:55:26;99051.73;;;25.52;49.62
55801;BME280;41730;51.960;20.158;2023-07-02T11:57:58;99054.89;;;25.45;49.37
55801;BME280;41730;51.960;20.158;2023-07-02T12:00:29;99058.21;;;25.46;48.95
55801;BME280;41730;51.960;20.158;2023-07-02T12:03:01;99057.61;;;25.39;48.79
55801;BME280;41730;51.960;20.158;2023-07-02T12:05:33;99052.83;;;25.30;48.64
55801;BME280;41730;51.960;20.158;2023-07-02T12:08:05;99054.55;;;25.26;48.46
55801;BME280;41730;51.960;20.158;2023-07-02T12:10:39;99052.14;;;25.27;48.41
55801;BME280;41730;51.960;20.158;2023-07-02T12:13:11;99052.24;;;25.37;48.03
55801;BME280;41730;51.960;20.158;2023-07-02T12:15:43;99054.46;;;25.52;48.12
55801;BME280;41730;51.960;20.158;2023-07-02T12:18:15;99060.25;;;25.75;47.72
55801;BME280;41730;51.960;20.158;2023-07-02T12:20:46;99055.52;;;25.97;47.15
55801;BME280;41730;51.960;20.158;2023-07-02T12:23:18;99054.50;;;26.09;46.89
55801;BME280;41730;51.960;20.158;2023-07-02T12:25:50;99055.09;;;26.15;46.46
55801;BME280;41730;51.960;20.158;2023-07-02T12:28:22;99061.36;;;26.33;46.06
55801;BME280;41730;51.960;20.158;2023-07-02T12:30:53;99058.04;;;26.34;45.39
55801;BME280;41730;51.960;20.158;2023-07-02T12:33:25;99060.14;;;26.27;45.06
55801;BME280;41730;51.960;20.158;2023-07-02T12:35:56;99062.13;;;26.11;44.89
55801;BME280;41730;51.960;20.158;2023-07-02T12:38:29;99063.64;;;26.00;44.72
55801;BME280;41730;51.960;20.158;2023-07-02T12:41:01;99067.81;;;25.98;43.61
55801;BME280;41730;51.960;20.158;2023-07-02T12:43:32;99068.41;;;25.97;42.99
55801;BME280;41730;51.960;20.158;2023-07-02T12:46:05;99072.23;;;25.86;42.82
55801;BME280;41730;51.960;20.158;2023-07-02T12:48:37;99073.60;;;25.74;42.86
55801;BME280;41730;51.960;20.158;2023-07-02T12:51:09;99069.98;;;25.68;42.39
55801;BME280;41730;51.960;20.158;2023-07-02T12:53:41;99076.02;;;25.58;42.72
55801;BME280;41730;51.960;20.158;2023-07-02T12:56:13;99068.35;;;25.56;42.59
55801;BME280;41730;51.960;20.158;2023-07-02T12:58:45;99074.59;;;25.56;42.64
55801;BME280;41730;51.960;20.158;2023-07-02T13:01:16;99075.08;;;25.61;42.74
55801;BME280;41730;51.960;20.158;2023-07-02T13:03:50;99077.86;;;25.64;42.57
55801;BME280;41730;51.960;20.158;2023-07-02T13:06:22;99083.52;;;25.70;42.59
55801;BME280;41730;51.960;20.158;2023-07-02T13:08:55;99079.21;;;25.70;42.94
55801;BME280;41730;51.960;20.158;2023-07-02T13:11:29;99078.73;;;25.70;42.62
55801;BME280;41730;51.960;20.158;2023-07-02T13:14:02;99083.84;;;25.65;42.38
55801;BME280;41730;51.960;20.158;2023-07-02T13:16:34;99088.02;;;25.63;42.60
55801;BME280;41730;51.960;20.158;2023-07-02T13:19:08;99090.94;;;25.60;42.73